KASE/ASE METAR and TAF weather

Enter ICAO airport designator
Station Type Date Time Source
KASE METAR 2021/03/08 02:53 UTC NOAA

KASE 080253Z AUTO 22007KT 10SM CLR 03/M07 A3020 RMK AO2 SLP190 T00331072 52011


Station Type Date Time Source
KASE Decoded METAR 2021/03/08 02:53 UTC NOAA

ASPEN-PITKIN COUNTY AIRPORT, CO, United States (KASE) 39-14N 106-52W 2354M
Mar 07, 2021 - 09:53 PM EST / 2021.03.08 0253 UTC
Wind: from the SW (220 degrees) at 8 MPH (7 KT):0
Visibility: 10 mile(s):0
Sky conditions: clear
Temperature: 37.9 F (3.3 C)
Dew Point: 19.0 F (-7.2 C)
Relative Humidity: 46%
Pressure (altimeter): 30.2 in. Hg (1022 hPa)
Pressure tendency: 0.03 inches (1.1 hPa) higher than three hours ago
ob: KASE 080253Z AUTO 22007KT 10SM CLR 03/M07 A3020 RMK AO2 SLP190 T00331072 52011
cycle: 3

Station Type Date Time Source
KASE TAF 2021/03/07 18:30 UTC NOAA

TAF KASE 071729Z 0718/0818 26003KT P6SM FEW250
FM072000 30007KT P6SM FEW250
FM080000 24008KT P6SM FEW250
FM080200 19006KT P6SM SCT250

Example: see airport list